Time;durP1;ratioP1;P1;durP2;ratioP2;P2;SDS_P1;SDS_P2;PMS_P1;PMS_P2;Temp;Humidity;BMP_temperature;BMP_pressure;BME280_temperature;BME280_humidity;BME280_pressure;Samples;Min_cycle;Max_cycle;Signal;HPM_P1;HPM_P2
2021/07/21 00:01:55;;;;;;;18.52;13.13;;;;;;;;;;5050211;28;39215;-77
2021/07/21 00:04:21;;;;;;;19.25;13.55;;;;;;;;;;5040760;28;37680;-77
2021/07/21 00:06:48;;;;;;;19.52;13.50;;;;;;;;;;5048824;27;39843;-77
2021/07/21 00:09:15;;;;;;;19.40;13.90;;;;;;;;;;5054748;28;38641;-77
2021/07/21 00:14:27;;;;;;;22.65;13.43;;;;;;;;;;5052200;28;38205;-77
2021/07/21 00:17:06;;;;;;;21.00;13.95;;;;;;;;;;5042683;28;39778;-77
2021/07/21 00:22:18;;;;;;;20.58;13.68;;;;;;;;;;5041619;28;39208;-77
2021/07/21 00:24:45;;;;;;;21.75;14.48;;;;;;;;;;5049009;28;37298;-78
2021/07/21 00:27:11;;;;;;;20.35;14.45;;;;;;;;;;5044594;28;39807;-77
2021/07/21 00:29:38;;;;;;;20.20;13.88;;;;;;;;;;5047208;28;39138;-76
2021/07/21 00:32:05;;;;;;;19.95;14.00;;;;;;;;;;5055018;28;38725;-76
2021/07/21 00:34:31;;;;;;;20.40;14.10;;;;;;;;;;5049707;28;36050;-77
2021/07/21 00:36:58;;;;;;;20.42;13.80;;;;;;;;;;5048593;28;40071;-77
2021/07/21 00:39:24;;;;;;;22.17;14.32;;;;;;;;;;5049021;28;38997;-77
2021/07/21 00:41:51;;;;;;;23.38;14.65;;;;;;;;;;5038387;28;39152;-77
2021/07/21 00:44:17;;;;;;;20.15;13.70;;;;;;;;;;5040253;28;36993;-77
2021/07/21 00:46:44;;;;;;;24.13;14.73;;;;;;;;;;5046710;28;38832;-77
2021/07/21 00:49:10;;;;;;;23.00;14.60;;;;;;;;;;5047861;28;37632;-77
2021/07/21 00:51:38;;;;;;;21.35;13.57;;;;;;;;;;5052499;28;40222;-77
2021/07/21 00:54:04;;;;;;;19.17;14.15;;;;;;;;;;5049923;28;39028;-76
2021/07/21 00:56:31;;;;;;;21.83;14.27;;;;;;;;;;5051026;28;40889;-77
2021/07/21 00:58:58;;;;;;;23.17;14.65;;;;;;;;;;5064624;28;40679;-76
2021/07/21 01:01:24;;;;;;;20.27;13.88;;;;;;;;;;5048227;28;38585;-77
2021/07/21 01:03:51;;;;;;;19.48;12.98;;;;;;;;;;5066152;28;37653;-77
2021/07/21 01:06:17;;;;;;;20.48;14.30;;;;;;;;;;5051534;28;39770;-77
2021/07/21 01:08:45;;;;;;;21.73;12.80;;;;;;;;;;5053279;28;39515;-77
2021/07/21 01:11:29;;;;;;;21.35;13.85;;;;;;;;;;5049437;28;38506;-77
2021/07/21 01:14:15;;;;;;;22.67;14.10;;;;;;;;;;5038874;28;37065;-77
2021/07/21 01:16:43;;;;;;;23.90;15.10;;;;;;;;;;5063725;28;48347;-77
2021/07/21 01:19:13;;;;;;;22.88;14.77;;;;;;;;;;5049969;28;39925;-77
2021/07/21 01:21:58;;;;;;;22.67;13.90;;;;;;;;;;5042062;28;40252;-77
2021/07/21 01:24:27;;;;;;;20.17;13.57;;;;;;;;;;5049202;28;38985;-77
2021/07/21 01:26:57;;;;;;;25.08;13.88;;;;;;;;;;5047811;28;39658;-77
2021/07/21 01:29:25;;;;;;;25.63;15.68;;;;;;;;;;5044699;28;38410;-77
2021/07/21 01:31:53;;;;;;;25.02;15.50;;;;;;;;;;5051679;27;37872;-77
2021/07/21 01:34:21;;;;;;;19.65;13.73;;;;;;;;;;5052456;28;36836;-77
2021/07/21 01:36:52;;;;;;;21.58;14.05;;;;;;;;;;5048894;28;39573;-77
2021/07/21 01:39:22;;;;;;;20.92;14.32;;;;;;;;;;5050271;28;39478;-77
2021/07/21 01:41:51;;;;;;;23.42;15.00;;;;;;;;;;5047115;28;40524;-77
2021/07/21 01:44:19;;;;;;;20.35;13.60;;;;;;;;;;5053336;28;37584;-77
2021/07/21 01:46:46;;;;;;;21.65;14.13;;;;;;;;;;5041610;28;39737;-77
2021/07/21 01:49:14;;;;;;;19.70;13.65;;;;;;;;;;5050193;28;40237;-77
2021/07/21 01:51:44;;;;;;;23.75;15.27;;;;;;;;;;5052792;27;37766;-77
2021/07/21 01:54:10;;;;;;;20.75;14.55;;;;;;;;;;5040041;28;36223;-77
2021/07/21 01:56:37;;;;;;;26.13;15.30;;;;;;;;;;5041628;28;38656;-78
2021/07/21 01:59:04;;;;;;;20.13;13.70;;;;;;;;;;5041715;28;40842;-77
2021/07/21 02:01:31;;;;;;;22.45;14.45;;;;;;;;;;5037492;28;39279;-77
2021/07/21 02:03:59;;;;;;;24.48;14.95;;;;;;;;;;5047595;28;36708;-77
2021/07/21 02:06:26;;;;;;;26.83;15.73;;;;;;;;;;5049207;28;39296;-77
2021/07/21 02:08:57;;;;;;;23.75;14.70;;;;;;;;;;5053383;28;40170;-77
2021/07/21 02:11:23;;;;;;;23.27;15.45;;;;;;;;;;5057942;28;38570;-77
2021/07/21 02:13:50;;;;;;;24.55;15.20;;;;;;;;;;5055017;28;36584;-77
2021/07/21 02:16:18;;;;;;;23.25;15.00;;;;;;;;;;5047633;27;39038;-77
2021/07/21 02:18:47;;;;;;;24.70;15.40;;;;;;;;;;5052125;28;37590;-77
2021/07/21 02:21:14;;;;;;;20.58;14.38;;;;;;;;;;5049107;28;38430;-77
2021/07/21 02:23:40;;;;;;;23.13;15.13;;;;;;;;;;5048905;28;37496;-77
2021/07/21 02:26:07;;;;;;;21.80;15.27;;;;;;;;;;5053036;27;39590;-77
2021/07/21 02:28:34;;;;;;;21.25;15.30;;;;;;;;;;5054892;28;39271;-77
2021/07/21 02:31:02;;;;;;;21.45;14.73;;;;;;;;;;5050331;28;36939;-77
2021/07/21 02:33:55;;;;;;;24.35;14.70;;;;;;;;;;5056406;28;48775;-77
2021/07/21 02:36:22;;;;;;;21.83;14.02;;;;;;;;;;5047189;28;39815;-77
2021/07/21 02:38:48;;;;;;;20.40;13.80;;;;;;;;;;5056753;28;40527;-77
2021/07/21 02:41:15;;;;;;;24.67;15.50;;;;;;;;;;5050763;27;36786;-77
2021/07/21 02:43:42;;;;;;;20.63;14.02;;;;;;;;;;5058447;28;37931;-77
2021/07/21 02:46:08;;;;;;;23.58;15.15;;;;;;;;;;5056137;28;40196;-77
2021/07/21 02:48:34;;;;;;;23.85;15.63;;;;;;;;;;5052558;28;40188;-77
2021/07/21 02:51:14;;;;;;;27.08;14.98;;;;;;;;;;5049431;28;38548;-77
2021/07/21 02:53:44;;;;;;;22.30;14.40;;;;;;;;;;5059022;28;47141;-77
2021/07/21 02:56:12;;;;;;;21.48;13.88;;;;;;;;;;5039166;28;39312;-77
2021/07/21 02:58:54;;;;;;;21.75;13.88;;;;;;;;;;5042779;28;39215;-77
2021/07/21 03:01:21;;;;;;;22.05;15.10;;;;;;;;;;5038789;28;40437;-77
2021/07/21 03:03:49;;;;;;;23.15;15.40;;;;;;;;;;5041883;28;36994;-77
2021/07/21 03:06:17;;;;;;;22.45;15.25;;;;;;;;;;5046143;28;38352;-76
2021/07/21 03:08:45;;;;;;;23.42;15.30;;;;;;;;;;5053160;28;39340;-76
2021/07/21 03:11:12;;;;;;;19.05;13.60;;;;;;;;;;5057263;28;38486;-77
2021/07/21 03:13:42;;;;;;;20.67;14.05;;;;;;;;;;5047211;28;37194;-77
2021/07/21 03:16:09;;;;;;;25.13;15.95;;;;;;;;;;5059870;28;38545;-77
2021/07/21 03:18:36;;;;;;;22.38;15.10;;;;;;;;;;5043317;28;39276;-77
2021/07/21 03:21:03;;;;;;;27.05;16.02;;;;;;;;;;5042582;28;39371;-77
2021/07/21 03:23:30;;;;;;;25.45;16.38;;;;;;;;;;5045231;28;37174;-77
2021/07/21 03:25:59;;;;;;;25.33;16.38;;;;;;;;;;5041987;28;39306;-77
2021/07/21 03:28:26;;;;;;;22.77;15.57;;;;;;;;;;5046136;28;39726;-77
2021/07/21 03:30:54;;;;;;;25.13;16.45;;;;;;;;;;5043732;28;36801;-77
2021/07/21 03:33:20;;;;;;;24.02;14.55;;;;;;;;;;5039508;28;37690;-77
2021/07/21 03:35:48;;;;;;;23.80;14.60;;;;;;;;;;5043694;28;39700;-77
2021/07/21 03:38:16;;;;;;;24.75;15.82;;;;;;;;;;5046060;28;38463;-77
2021/07/21 03:40:43;;;;;;;23.40;15.15;;;;;;;;;;5044319;28;40222;-77
2021/07/21 03:43:10;;;;;;;23.30;14.50;;;;;;;;;;5040334;28;40133;-77
2021/07/21 03:45:37;;;;;;;21.98;15.25;;;;;;;;;;5051741;28;38547;-77
2021/07/21 03:48:03;;;;;;;22.55;15.68;;;;;;;;;;5058628;28;39273;-77
2021/07/21 03:50:30;;;;;;;24.33;15.05;;;;;;;;;;5044294;28;40380;-77
2021/07/21 03:52:57;;;;;;;23.38;16.33;;;;;;;;;;5040171;28;38341;-78
2021/07/21 03:55:25;;;;;;;22.65;15.95;;;;;;;;;;5049108;28;38747;-77
2021/07/21 03:57:52;;;;;;;24.55;15.60;;;;;;;;;;5042475;28;39313;-76
2021/07/21 04:00:19;;;;;;;23.30;15.50;;;;;;;;;;5041975;28;38334;-76
2021/07/21 04:02:50;;;;;;;24.40;14.88;;;;;;;;;;5066158;27;37774;-76
2021/07/21 04:05:17;;;;;;;21.83;14.60;;;;;;;;;;5040133;28;39193;-76
2021/07/21 04:07:44;;;;;;;25.05;16.00;;;;;;;;;;5035800;28;40349;-77
2021/07/21 04:10:11;;;;;;;25.67;15.90;;;;;;;;;;5043324;28;35803;-78
2021/07/21 04:12:40;;;;;;;25.23;15.63;;;;;;;;;;5040065;28;36171;-77
2021/07/21 04:15:07;;;;;;;23.50;15.52;;;;;;;;;;5039758;28;39006;-76
2021/07/21 04:17:35;;;;;;;23.67;15.52;;;;;;;;;;5041612;28;37966;-77
2021/07/21 04:20:02;;;;;;;24.02;15.60;;;;;;;;;;5045382;28;39354;-76
2021/07/21 04:22:29;;;;;;;27.85;15.82;;;;;;;;;;5055003;28;47371;-76
2021/07/21 04:24:57;;;;;;;24.25;15.80;;;;;;;;;;5048145;28;38169;-77
2021/07/21 04:27:23;;;;;;;25.25;15.13;;;;;;;;;;5055751;28;39901;-76
2021/07/21 04:29:51;;;;;;;21.15;14.55;;;;;;;;;;5045867;28;36430;-77
2021/07/21 04:32:21;;;;;;;25.25;16.13;;;;;;;;;;5038217;28;37532;-76
2021/07/21 04:34:48;;;;;;;25.75;16.77;;;;;;;;;;5045352;28;39807;-77
2021/07/21 04:37:15;;;;;;;26.13;17.20;;;;;;;;;;5039999;28;39462;-77
2021/07/21 04:39:45;;;;;;;24.15;16.20;;;;;;;;;;5045100;28;39207;-77
2021/07/21 04:42:12;;;;;;;27.17;16.92;;;;;;;;;;5047601;28;38945;-77
2021/07/21 04:44:40;;;;;;;25.98;16.05;;;;;;;;;;5053918;28;38812;-76
2021/07/21 04:47:07;;;;;;;26.20;16.55;;;;;;;;;;5046315;28;40570;-76
2021/07/21 04:49:37;;;;;;;26.80;16.75;;;;;;;;;;5043545;28;38849;-76
2021/07/21 04:52:04;;;;;;;26.95;17.67;;;;;;;;;;5038698;27;37410;-76
2021/07/21 04:54:31;;;;;;;26.63;16.27;;;;;;;;;;5047181;28;38390;-77
2021/07/21 04:56:57;;;;;;;23.25;14.75;;;;;;;;;;5039939;28;37925;-76
2021/07/21 04:59:24;;;;;;;26.40;16.88;;;;;;;;;;5052554;28;38842;-77
2021/07/21 05:01:51;;;;;;;24.58;15.02;;;;;;;;;;5047783;28;37227;-76
2021/07/21 05:04:17;;;;;;;24.33;15.77;;;;;;;;;;5048423;28;39699;-76
2021/07/21 05:06:45;;;;;;;24.60;16.05;;;;;;;;;;5049406;28;40095;-76
2021/07/21 05:09:11;;;;;;;21.58;16.00;;;;;;;;;;5049497;28;38877;-76
2021/07/21 05:11:38;;;;;;;23.15;15.20;;;;;;;;;;5063518;28;37639;-77
2021/07/21 05:14:05;;;;;;;23.17;15.18;;;;;;;;;;5049237;28;39720;-77
2021/07/21 05:16:31;;;;;;;24.50;15.50;;;;;;;;;;5048754;28;40599;-77
2021/07/21 05:18:58;;;;;;;24.63;15.82;;;;;;;;;;5047630;28;38766;-77
2021/07/21 05:21:24;;;;;;;27.70;15.77;;;;;;;;;;5048284;28;37077;-76
2021/07/21 05:23:51;;;;;;;21.17;14.68;;;;;;;;;;5049068;28;39836;-76
2021/07/21 05:26:17;;;;;;;21.63;14.85;;;;;;;;;;5048290;28;39425;-79
2021/07/21 05:28:44;;;;;;;23.10;15.60;;;;;;;;;;5049911;28;37054;-79
2021/07/21 05:31:10;;;;;;;25.13;15.73;;;;;;;;;;5051382;27;35978;-79
2021/07/21 05:33:37;;;;;;;22.75;14.93;;;;;;;;;;5048944;28;40031;-79
2021/07/21 05:36:04;;;;;;;19.27;14.38;;;;;;;;;;5051762;28;38689;-79
2021/07/21 05:38:31;;;;;;;21.95;14.38;;;;;;;;;;5050355;28;38420;-79
2021/07/21 05:40:58;;;;;;;24.83;14.98;;;;;;;;;;5055594;28;37697;-79
2021/07/21 05:43:26;;;;;;;20.25;14.02;;;;;;;;;;5051021;28;38618;-79
2021/07/21 05:45:53;;;;;;;20.95;14.45;;;;;;;;;;5048732;28;40114;-78
2021/07/21 05:48:19;;;;;;;25.08;16.55;;;;;;;;;;5050357;28;39143;-78
2021/07/21 05:50:45;;;;;;;21.55;15.15;;;;;;;;;;5050868;28;37995;-78
2021/07/21 05:53:12;;;;;;;22.92;14.82;;;;;;;;;;5050029;28;38092;-77
2021/07/21 05:55:38;;;;;;;24.00;15.05;;;;;;;;;;5054770;28;40380;-77
2021/07/21 05:58:05;;;;;;;21.25;13.68;;;;;;;;;;5057603;28;37993;-77
2021/07/21 06:00:31;;;;;;;19.08;13.27;;;;;;;;;;5052879;28;37302;-78
2021/07/21 06:02:57;;;;;;;21.85;14.05;;;;;;;;;;5053128;28;38593;-78
2021/07/21 06:05:24;;;;;;;22.27;14.60;;;;;;;;;;5056569;27;37818;-77
2021/07/21 06:07:50;;;;;;;18.30;12.85;;;;;;;;;;5057868;28;39714;-78
2021/07/21 06:10:16;;;;;;;17.42;12.07;;;;;;;;;;5057745;28;38177;-76
2021/07/21 06:12:43;;;;;;;17.95;11.88;;;;;;;;;;5058162;28;39305;-76
2021/07/21 06:15:09;;;;;;;17.60;12.93;;;;;;;;;;5056781;28;38951;-76
2021/07/21 06:17:36;;;;;;;18.35;13.70;;;;;;;;;;5056627;28;38893;-76
2021/07/21 06:20:04;;;;;;;19.42;12.68;;;;;;;;;;5055186;28;37268;-76
2021/07/21 06:22:33;;;;;;;14.48;11.32;;;;;;;;;;5059854;28;49137;-76
2021/07/21 06:25:00;;;;;;;15.55;11.02;;;;;;;;;;5056315;28;39040;-76
2021/07/21 06:27:26;;;;;;;16.52;11.27;;;;;;;;;;5059279;28;39002;-76
2021/07/21 06:29:53;;;;;;;15.77;11.07;;;;;;;;;;5059980;28;37613;-76
2021/07/21 06:32:19;;;;;;;16.55;10.82;;;;;;;;;;5058113;28;38735;-76
2021/07/21 06:34:46;;;;;;;15.32;11.45;;;;;;;;;;5062246;28;39086;-76
2021/07/21 06:37:12;;;;;;;15.23;10.50;;;;;;;;;;5056648;27;39480;-76
2021/07/21 06:39:38;;;;;;;13.70;10.30;;;;;;;;;;5056045;28;36836;-76
2021/07/21 06:42:05;;;;;;;14.82;10.68;;;;;;;;;;5052916;28;37755;-76
2021/07/21 06:44:31;;;;;;;18.10;12.68;;;;;;;;;;5059259;28;38786;-76
2021/07/21 06:46:58;;;;;;;17.08;12.32;;;;;;;;;;5053295;28;40333;-76
2021/07/21 06:49:24;;;;;;;16.42;11.23;;;;;;;;;;5054834;28;37218;-75
2021/07/21 06:51:50;;;;;;;15.60;10.48;;;;;;;;;;5048762;28;40345;-75
2021/07/21 06:54:17;;;;;;;16.20;10.45;;;;;;;;;;5058475;28;39379;-74
2021/07/21 06:56:43;;;;;;;15.13;10.43;;;;;;;;;;5060447;28;39685;-74
2021/07/21 06:59:09;;;;;;;14.63;10.75;;;;;;;;;;5057056;28;38037;-75
2021/07/21 07:01:36;;;;;;;16.67;10.80;;;;;;;;;;5055906;28;38649;-75
2021/07/21 07:04:02;;;;;;;12.65;9.07;;;;;;;;;;5052055;28;39484;-75
2021/07/21 07:06:28;;;;;;;19.10;11.35;;;;;;;;;;5057773;28;39424;-77
2021/07/21 07:08:55;;;;;;;15.10;10.02;;;;;;;;;;5056883;28;38298;-75
2021/07/21 07:11:21;;;;;;;14.70;10.07;;;;;;;;;;5062109;28;37675;-76
2021/07/21 07:13:48;;;;;;;15.48;9.95;;;;;;;;;;5063808;28;39251;-75
2021/07/21 07:16:14;;;;;;;14.73;10.30;;;;;;;;;;5061265;27;38728;-75
2021/07/21 07:18:41;;;;;;;14.30;9.82;;;;;;;;;;5061544;28;37259;-75
2021/07/21 07:21:07;;;;;;;17.58;9.90;;;;;;;;;;5057609;28;40067;-74
2021/07/21 07:23:34;;;;;;;17.05;10.60;;;;;;;;;;5060443;28;38638;-75
2021/07/21 07:26:00;;;;;;;13.70;10.20;;;;;;;;;;5060568;27;38360;-75
2021/07/21 07:28:26;;;;;;;14.10;10.70;;;;;;;;;;5060887;28;37936;-74
2021/07/21 07:30:53;;;;;;;13.68;10.43;;;;;;;;;;5060886;28;39056;-74
2021/07/21 07:33:19;;;;;;;13.93;10.43;;;;;;;;;;5061918;28;39700;-75
2021/07/21 07:35:49;;;;;;;15.48;10.00;;;;;;;;;;5062085;28;39379;-76
2021/07/21 07:38:15;;;;;;;12.68;9.38;;;;;;;;;;5059926;28;38077;-76
2021/07/21 07:40:42;;;;;;;15.43;10.70;;;;;;;;;;5062211;28;40311;-75
2021/07/21 07:43:09;;;;;;;14.38;10.00;;;;;;;;;;5058139;27;40681;-75
2021/07/21 07:45:36;;;;;;;16.10;10.05;;;;;;;;;;5056787;28;38268;-75
2021/07/21 07:48:03;;;;;;;14.50;8.80;;;;;;;;;;5059111;28;36815;-75
2021/07/21 07:50:29;;;;;;;15.43;9.93;;;;;;;;;;5058706;28;39283;-75
2021/07/21 07:52:56;;;;;;;13.60;9.68;;;;;;;;;;5053996;28;39220;-74
2021/07/21 07:55:22;;;;;;;12.95;8.32;;;;;;;;;;5058065;28;38617;-75
2021/07/21 07:57:48;;;;;;;14.75;9.23;;;;;;;;;;5059506;28;38274;-75
2021/07/21 08:00:15;;;;;;;11.70;8.38;;;;;;;;;;5056588;28;39953;-75
2021/07/21 08:02:42;;;;;;;11.48;7.63;;;;;;;;;;5061181;28;39462;-75
2021/07/21 08:05:08;;;;;;;11.02;7.25;;;;;;;;;;5061339;28;37961;-74
2021/07/21 08:07:35;;;;;;;13.40;8.63;;;;;;;;;;5070660;28;37356;-75
2021/07/21 08:10:03;;;;;;;11.98;7.57;;;;;;;;;;5067979;28;38966;-74
2021/07/21 08:12:29;;;;;;;11.90;7.80;;;;;;;;;;5068723;27;39022;-75
2021/07/21 08:14:56;;;;;;;12.82;8.68;;;;;;;;;;5070434;28;38751;-75
2021/07/21 08:17:22;;;;;;;14.57;9.25;;;;;;;;;;5072423;27;38059;-75
2021/07/21 08:19:50;;;;;;;13.43;9.40;;;;;;;;;;5072447;28;39523;-75
2021/07/21 08:22:17;;;;;;;14.02;8.57;;;;;;;;;;5067184;28;39861;-76
2021/07/21 08:24:43;;;;;;;13.02;7.35;;;;;;;;;;5080102;28;38877;-75
2021/07/21 08:27:10;;;;;;;16.05;8.52;;;;;;;;;;5070854;28;36599;-74
2021/07/21 08:29:36;;;;;;;11.00;8.68;;;;;;;;;;5063723;28;38922;-75
2021/07/21 08:32:04;;;;;;;12.85;8.02;;;;;;;;;;5075639;28;40010;-75
2021/07/21 08:34:30;;;;;;;11.07;7.35;;;;;;;;;;5072135;28;40279;-75
2021/07/21 08:36:57;;;;;;;10.52;6.57;;;;;;;;;;5069027;28;36770;-75
2021/07/21 08:39:24;;;;;;;11.45;7.57;;;;;;;;;;5070113;28;39828;-76
2021/07/21 08:41:50;;;;;;;11.60;7.88;;;;;;;;;;5064318;28;39095;-76
2021/07/21 08:44:17;;;;;;;14.13;7.75;;;;;;;;;;5061161;28;40049;-76
2021/07/21 08:46:44;;;;;;;9.60;7.15;;;;;;;;;;5060295;28;37580;-76
2021/07/21 08:49:11;;;;;;;13.40;7.93;;;;;;;;;;5068203;28;39031;-76
2021/07/21 08:51:38;;;;;;;10.35;6.38;;;;;;;;;;5066814;28;40127;-76
2021/07/21 08:54:04;;;;;;;12.20;7.72;;;;;;;;;;5076194;28;39547;-76
2021/07/21 08:56:31;;;;;;;9.43;6.88;;;;;;;;;;5065354;27;38663;-76
2021/07/21 08:58:58;;;;;;;11.38;7.47;;;;;;;;;;5061731;28;39037;-76
2021/07/21 09:01:24;;;;;;;11.65;7.50;;;;;;;;;;5061792;27;38610;-77
2021/07/21 09:03:51;;;;;;;8.85;7.53;;;;;;;;;;5055920;28;36758;-76
2021/07/21 09:06:17;;;;;;;11.73;7.57;;;;;;;;;;5063282;28;37898;-76
2021/07/21 09:08:43;;;;;;;12.38;8.50;;;;;;;;;;5057582;28;38724;-76
2021/07/21 09:11:11;;;;;;;12.40;7.68;;;;;;;;;;5061309;28;38762;-76
2021/07/21 09:13:38;;;;;;;14.60;9.45;;;;;;;;;;5064164;28;39311;-76
2021/07/21 09:16:08;;;;;;;11.35;8.45;;;;;;;;;;5058899;28;38047;-76
2021/07/21 09:18:50;;;;;;;11.88;8.27;;;;;;;;;;5056322;28;39222;-76
2021/07/21 09:21:18;;;;;;;10.88;7.53;;;;;;;;;;5055127;28;39856;-76
2021/07/21 09:23:49;;;;;;;13.75;9.43;;;;;;;;;;5054036;28;38711;-76
2021/07/21 09:26:20;;;;;;;12.32;8.50;;;;;;;;;;5062055;28;38257;-76
2021/07/21 09:28:46;;;;;;;11.23;7.63;;;;;;;;;;5056751;28;39068;-76
2021/07/21 09:31:14;;;;;;;9.20;7.63;;;;;;;;;;5055587;28;40696;-76
2021/07/21 09:33:42;;;;;;;12.90;6.63;;;;;;;;;;5062344;28;40180;-76
2021/07/21 09:36:17;;;;;;;13.68;8.27;;;;;;;;;;5065860;28;37913;-76
2021/07/21 09:38:44;;;;;;;11.88;8.02;;;;;;;;;;5060895;28;37576;-76
2021/07/21 09:41:12;;;;;;;13.95;8.50;;;;;;;;;;5052823;28;39071;-76
2021/07/21 09:43:38;;;;;;;16.75;8.45;;;;;;;;;;5058376;28;39116;-76
2021/07/21 09:46:08;;;;;;;8.73;6.88;;;;;;;;;;5058295;28;38204;-76
2021/07/21 09:48:39;;;;;;;10.63;7.07;;;;;;;;;;5070250;28;38993;-76
2021/07/21 09:51:06;;;;;;;10.95;7.82;;;;;;;;;;5050824;28;37822;-76
2021/07/21 09:53:51;;;;;;;10.27;7.80;;;;;;;;;;5059895;28;39081;-76
2021/07/21 09:56:30;;;;;;;10.20;7.57;;;;;;;;;;5060971;28;37939;-78
2021/07/21 09:59:15;;;;;;;9.63;7.32;;;;;;;;;;5061010;28;38546;-76
2021/07/21 10:01:42;;;;;;;13.90;8.43;;;;;;;;;;5056556;28;46762;-77
2021/07/21 10:04:08;;;;;;;10.15;8.45;;;;;;;;;;5068448;28;38308;-76
2021/07/21 10:06:39;;;;;;;13.82;7.88;;;;;;;;;;5062243;27;36579;-77
2021/07/21 10:09:05;;;;;;;11.52;7.40;;;;;;;;;;5059635;28;39279;-77
2021/07/21 10:11:36;;;;;;;10.07;7.88;;;;;;;;;;5065444;28;40402;-77
2021/07/21 10:14:03;;;;;;;12.80;7.85;;;;;;;;;;5068842;28;40154;-77
2021/07/21 10:16:34;;;;;;;10.95;7.68;;;;;;;;;;5065321;28;37663;-76
2021/07/21 10:19:02;;;;;;;9.55;8.18;;;;;;;;;;5068046;28;40129;-77
2021/07/21 10:21:29;;;;;;;9.38;7.25;;;;;;;;;;5054402;28;47312;-77
2021/07/21 10:23:56;;;;;;;9.95;7.43;;;;;;;;;;5069548;28;37568;-77
2021/07/21 10:26:24;;;;;;;9.48;7.03;;;;;;;;;;5064658;28;37763;-76
2021/07/21 10:28:51;;;;;;;10.27;7.28;;;;;;;;;;5064775;28;40119;-77
2021/07/21 10:31:17;;;;;;;9.70;6.95;;;;;;;;;;5056170;28;40009;-77
2021/07/21 10:33:44;;;;;;;8.57;7.32;;;;;;;;;;5062406;28;39337;-76
2021/07/21 10:36:10;;;;;;;11.88;7.80;;;;;;;;;;5063892;28;36485;-76
2021/07/21 10:38:37;;;;;;;9.55;6.53;;;;;;;;;;5063251;28;38875;-77
2021/07/21 10:41:04;;;;;;;10.30;8.05;;;;;;;;;;5068791;28;38882;-77
2021/07/21 10:43:30;;;;;;;13.13;8.35;;;;;;;;;;5069972;28;36794;-77
2021/07/21 10:45:57;;;;;;;11.57;7.68;;;;;;;;;;5071474;28;35535;-77
2021/07/21 10:48:42;;;;;;;8.75;6.85;;;;;;;;;;5075402;28;39807;-76
2021/07/21 10:51:27;;;;;;;10.68;6.97;;;;;;;;;;5070495;27;38705;-76
2021/07/21 10:54:01;;;;;;;9.32;7.05;;;;;;;;;;5071196;28;38774;-77
2021/07/21 10:59:15;;;;;;;11.57;7.15;;;;;;;;;;5064047;28;40777;-77
2021/07/21 11:02:00;;;;;;;7.72;6.65;;;;;;;;;;5074544;28;37879;-78
2021/07/21 11:04:41;;;;;;;9.07;7.05;;;;;;;;;;5081581;28;39984;-78
2021/07/21 11:07:08;;;;;;;8.43;6.40;;;;;;;;;;5065869;28;36879;-77
2021/07/21 11:09:39;;;;;;;11.77;7.22;;;;;;;;;;5061620;28;40213;-77
2021/07/21 11:12:05;;;;;;;10.70;7.80;;;;;;;;;;5060662;28;39028;-77
2021/07/21 11:14:35;;;;;;;9.40;6.70;;;;;;;;;;5080322;28;39169;-77
2021/07/21 11:17:07;;;;;;;8.73;6.40;;;;;;;;;;5074126;28;38176;-77
2021/07/21 11:19:43;;;;;;;12.15;7.15;;;;;;;;;;5082669;28;46934;-77
2021/07/21 11:22:11;;;;;;;9.45;7.18;;;;;;;;;;5292550;22;40978;-80
2021/07/21 11:24:56;;;;;;;11.77;6.93;;;;;;;;;;5076446;28;39801;-77
2021/07/21 11:27:39;;;;;;;10.07;6.38;;;;;;;;;;5072272;28;37020;-77
2021/07/21 11:30:25;;;;;;;9.95;6.72;;;;;;;;;;5063629;28;39680;-78
2021/07/21 11:32:51;;;;;;;9.52;6.82;;;;;;;;;;5073216;28;46980;-77
2021/07/21 11:35:37;;;;;;;9.98;7.22;;;;;;;;;;5085949;28;40176;-76
2021/07/21 11:38:04;;;;;;;10.57;7.13;;;;;;;;;;5060646;28;37709;-77
2021/07/21 11:40:42;;;;;;;8.95;6.50;;;;;;;;;;5063881;28;39657;-78
2021/07/21 11:43:38;;;;;;;11.90;6.97;;;;;;;;;;5073526;28;39329;-78
2021/07/21 11:46:09;;;;;;;13.20;6.97;;;;;;;;;;5065344;28;38670;-78
2021/07/21 11:48:35;;;;;;;8.53;6.30;;;;;;;;;;5068613;28;35933;-76
2021/07/21 11:51:02;;;;;;;10.80;6.63;;;;;;;;;;5081729;28;36562;-77
2021/07/21 11:53:28;;;;;;;8.15;6.35;;;;;;;;;;5066481;28;39618;-77
2021/07/21 11:55:55;;;;;;;9.40;6.85;;;;;;;;;;5062986;28;38741;-77
2021/07/21 11:58:23;;;;;;;8.85;6.78;;;;;;;;;;5086610;28;38533;-77
2021/07/21 12:00:51;;;;;;;9.45;7.22;;;;;;;;;;5068184;28;36379;-77
2021/07/21 12:03:17;;;;;;;8.73;6.28;;;;;;;;;;5072969;28;38981;-78
2021/07/21 12:05:53;;;;;;;11.07;6.22;;;;;;;;;;5070451;28;39237;-77
2021/07/21 12:08:20;;;;;;;7.70;6.38;;;;;;;;;;5066345;28;36776;-74
2021/07/21 12:10:46;;;;;;;6.78;5.70;;;;;;;;;;5079450;28;39288;-75
2021/07/21 12:13:15;;;;;;;8.07;6.20;;;;;;;;;;5071666;28;39290;-75
2021/07/21 12:15:41;;;;;;;8.35;7.10;;;;;;;;;;5067719;28;39267;-74
2021/07/21 12:18:11;;;;;;;10.65;6.68;;;;;;;;;;5058718;28;37364;-74
2021/07/21 12:20:38;;;;;;;9.45;6.95;;;;;;;;;;5062612;28;38871;-74
2021/07/21 12:23:04;;;;;;;8.50;7.20;;;;;;;;;;5065407;28;42508;-74
2021/07/21 12:25:32;;;;;;;9.25;6.95;;;;;;;;;;5064554;28;40410;-75
2021/07/21 12:27:59;;;;;;;9.68;7.57;;;;;;;;;;5066619;28;36726;-75
2021/07/21 12:30:25;;;;;;;9.88;8.02;;;;;;;;;;5065019;28;39346;-75
2021/07/21 12:32:53;;;;;;;10.18;7.32;;;;;;;;;;5071435;28;39601;-75
2021/07/21 12:35:29;;;;;;;10.43;8.32;;;;;;;;;;5070949;28;38163;-74
2021/07/21 12:37:57;;;;;;;11.18;7.25;;;;;;;;;;5066544;28;37171;-74
2021/07/21 12:40:26;;;;;;;8.48;7.30;;;;;;;;;;5062707;27;40625;-75
2021/07/21 12:42:56;;;;;;;8.43;6.53;;;;;;;;;;5066846;28;39119;-74
2021/07/21 12:45:24;;;;;;;11.52;8.38;;;;;;;;;;5064607;28;38616;-74
2021/07/21 12:47:52;;;;;;;9.40;7.30;;;;;;;;;;5064882;28;36440;-75
2021/07/21 12:50:19;;;;;;;11.10;7.88;;;;;;;;;;5071522;28;38773;-75
2021/07/21 12:52:46;;;;;;;11.27;8.25;;;;;;;;;;5063504;28;39374;-75
2021/07/21 12:55:17;;;;;;;9.60;8.05;;;;;;;;;;5066414;28;37706;-74
2021/07/21 12:57:44;;;;;;;8.48;7.45;;;;;;;;;;5069790;28;37199;-75
2021/07/21 13:00:24;;;;;;;9.80;7.43;;;;;;;;;;5057429;28;38235;-77
2021/07/21 13:02:56;;;;;;;9.35;6.90;;;;;;;;;;5060596;28;38519;-77
2021/07/21 13:05:26;;;;;;;10.48;7.97;;;;;;;;;;5082566;28;39122;-77
2021/07/21 13:08:09;;;;;;;8.32;6.97;;;;;;;;;;5063851;28;37166;-76
2021/07/21 13:10:37;;;;;;;9.00;7.03;;;;;;;;;;5064775;28;47741;-75
2021/07/21 13:13:04;;;;;;;9.65;7.90;;;;;;;;;;5074981;28;39926;-75
2021/07/21 13:15:31;;;;;;;9.25;7.55;;;;;;;;;;5078485;28;38858;-78
2021/07/21 13:17:59;;;;;;;9.68;6.88;;;;;;;;;;5064340;28;36028;-75
2021/07/21 13:20:30;;;;;;;8.93;7.15;;;;;;;;;;5056760;28;39227;-76
2021/07/21 13:23:12;;;;;;;8.88;6.43;;;;;;;;;;5069486;28;39856;-76
2021/07/21 13:25:38;;;;;;;;;;;;;;;;;;5067404;28;48085;-76
2021/07/21 13:28:25;;;;;;;8.48;6.90;;;;;;;;;;5062803;28;37962;-76
2021/07/21 13:30:52;;;;;;;12.20;7.90;;;;;;;;;;5057028;28;39812;-76
2021/07/21 13:33:19;;;;;;;11.40;8.68;;;;;;;;;;5060448;28;39467;-76
2021/07/21 13:36:06;;;;;;;10.15;7.68;;;;;;;;;;5058609;28;39207;-76
2021/07/21 13:38:33;;;;;;;12.02;7.80;;;;;;;;;;5055634;27;48682;-77
2021/07/21 13:41:03;;;;;;;9.27;7.95;;;;;;;;;;5061039;28;40458;-76
2021/07/21 13:43:30;;;;;;;9.65;8.25;;;;;;;;;;5062161;28;47346;-76
2021/07/21 13:45:57;;;;;;;9.75;7.65;;;;;;;;;;5053101;28;39512;-76
2021/07/21 13:48:27;;;;;;;10.43;8.52;;;;;;;;;;5064262;28;37247;-76
2021/07/21 13:51:09;;;;;;;13.02;9.05;;;;;;;;;;5066112;28;40012;-76
2021/07/21 13:53:35;;;;;;;;;;;;;;;;;;5067725;28;47163;-76
2021/07/21 13:56:02;;;;;;;12.02;8.43;;;;;;;;;;5065310;28;37546;-76
2021/07/21 13:58:29;;;;;;;10.25;7.80;;;;;;;;;;5063492;28;37728;-76
2021/07/21 14:00:55;;;;;;;9.32;7.97;;;;;;;;;;5060249;28;39451;-76
2021/07/21 14:03:22;;;;;;;11.45;8.25;;;;;;;;;;5067574;28;38540;-75
2021/07/21 14:05:49;;;;;;;13.30;9.45;;;;;;;;;;5065124;28;37995;-76
2021/07/21 14:08:15;;;;;;;12.00;8.73;;;;;;;;;;5066094;28;37154;-76
2021/07/21 14:10:42;;;;;;;13.00;9.25;;;;;;;;;;5060759;28;39125;-76
2021/07/21 14:13:08;;;;;;;14.95;10.35;;;;;;;;;;5057032;28;37711;-76
2021/07/21 14:15:35;;;;;;;12.82;9.60;;;;;;;;;;5075169;28;38278;-76
2021/07/21 14:18:02;;;;;;;14.27;9.50;;;;;;;;;;5073206;28;37522;-76
2021/07/21 14:20:28;;;;;;;13.48;8.65;;;;;;;;;;5063605;28;40867;-76
2021/07/21 14:22:55;;;;;;;13.02;7.65;;;;;;;;;;5073105;28;38985;-76
2021/07/21 14:25:21;;;;;;;15.23;9.30;;;;;;;;;;5094743;28;38686;-76
2021/07/21 14:27:48;;;;;;;13.75;8.73;;;;;;;;;;5071701;28;37437;-76
2021/07/21 14:30:15;;;;;;;10.38;8.38;;;;;;;;;;5064130;28;40089;-76
2021/07/21 14:32:41;;;;;;;13.65;9.57;;;;;;;;;;5066623;28;38568;-76
2021/07/21 14:35:08;;;;;;;9.80;7.68;;;;;;;;;;5068559;28;38823;-76
2021/07/21 14:37:35;;;;;;;15.40;10.65;;;;;;;;;;5067908;28;35713;-76
2021/07/21 14:40:01;;;;;;;13.20;9.70;;;;;;;;;;5063820;28;40470;-76
2021/07/21 14:42:27;;;;;;;10.65;8.40;;;;;;;;;;5070532;28;39022;-76